Time;durP1;ratioP1;P1;durP2;ratioP2;P2;SDS_P1;SDS_P2;PMS_P1;PMS_P2;Temp;Humidity;BMP_temperature;BMP_pressure;BME280_temperature;BME280_humidity;BME280_pressure;Samples;Min_cycle;Max_cycle;Signal;HPM_P1;HPM_P2
2022/01/17 00:02:08;;;;;;;7.97;5.77;;;;;;;;;;5074573;28;20928;-72
2022/01/17 00:04:34;;;;;;;9.53;5.70;;;;;;;;;;5074680;28;20410;-72
2022/01/17 00:07:00;;;;;;;9.37;7.27;;;;;;;;;;5074359;28;21007;-71
2022/01/17 00:09:27;;;;;;;7.87;5.20;;;;;;;;;;5056585;28;20571;-72
2022/01/17 00:11:53;;;;;;;9.50;6.30;;;;;;;;;;5074445;28;20459;-72
2022/01/17 00:14:23;;;;;;;11.50;6.10;;;;;;;;;;5074447;28;20430;-71
2022/01/17 00:17:10;;;;;;;8.60;5.83;;;;;;;;;;5074336;28;20484;-72
2022/01/17 00:19:41;;;;;;;9.43;6.20;;;;;;;;;;5074375;28;20476;-72
2022/01/17 00:22:07;;;;;;;8.80;6.00;;;;;;;;;;5074294;28;20911;-72
2022/01/17 00:24:33;;;;;;;7.93;5.83;;;;;;;;;;5074283;28;20412;-69
2022/01/17 00:26:59;;;;;;;9.27;6.00;;;;;;;;;;5073941;28;20558;-69
2022/01/17 00:29:26;;;;;;;10.97;5.20;;;;;;;;;;5074054;28;20418;-68
2022/01/17 00:31:52;;;;;;;9.93;6.27;;;;;;;;;;5056139;28;20406;-70
2022/01/17 00:34:18;;;;;;;9.63;6.40;;;;;;;;;;5073967;28;20453;-70
2022/01/17 00:36:44;;;;;;;11.27;6.30;;;;;;;;;;5073639;28;20444;-70
2022/01/17 00:39:10;;;;;;;10.30;6.30;;;;;;;;;;5073822;28;20395;-69
2022/01/17 00:41:36;;;;;;;7.87;5.93;;;;;;;;;;5073833;28;20463;-70
2022/01/17 00:44:03;;;;;;;8.03;5.67;;;;;;;;;;5073818;28;20392;-69
2022/01/17 00:46:29;;;;;;;10.63;6.27;;;;;;;;;;5055758;28;20471;-68
2022/01/17 00:48:55;;;;;;;8.97;5.60;;;;;;;;;;5073733;28;20499;-70
2022/01/17 00:51:24;;;;;;;10.30;6.47;;;;;;;;;;5073744;28;20467;-70
2022/01/17 00:53:50;;;;;;;8.90;5.70;;;;;;;;;;5055848;28;20796;-69
2022/01/17 00:56:18;;;;;;;8.03;5.60;;;;;;;;;;5073668;28;20398;-70
2022/01/17 00:58:44;;;;;;;8.47;5.50;;;;;;;;;;5073298;28;20410;-71
2022/01/17 01:01:10;;;;;;;9.37;6.37;;;;;;;;;;5073497;28;20523;-71
2022/01/17 01:03:36;;;;;;;9.00;6.07;;;;;;;;;;5073522;28;20416;-71
2022/01/17 01:06:02;;;;;;;7.93;5.30;;;;;;;;;;5055593;28;20428;-71
2022/01/17 01:08:28;;;;;;;8.27;5.70;;;;;;;;;;5073354;28;20525;-71
2022/01/17 01:10:54;;;;;;;8.90;5.70;;;;;;;;;;5073455;28;20795;-69
2022/01/17 01:13:24;;;;;;;9.30;6.17;;;;;;;;;;5073373;28;20416;-70
2022/01/17 01:29:13;;;;;;;12.30;8.40;;;;;;;;;;5073148;28;20768;-70
2022/01/17 01:31:50;;;;;;;13.40;8.10;;;;;;;;;;5073281;28;20891;-70
2022/01/17 01:34:18;;;;;;;12.03;8.67;;;;;;;;;;5073293;28;20476;-70
2022/01/17 01:36:48;;;;;;;12.57;8.13;;;;;;;;;;5073146;28;20417;-68
2022/01/17 01:39:23;;;;;;;14.10;8.93;;;;;;;;;;5073007;28;20761;-69
2022/01/17 01:41:49;;;;;;;13.93;8.27;;;;;;;;;;5073035;28;20756;-70
2022/01/17 01:44:16;;;;;;;12.23;7.87;;;;;;;;;;5073036;28;20390;-70
2022/01/17 01:46:43;;;;;;;16.60;8.43;;;;;;;;;;5054937;28;20986;-68
2022/01/17 01:49:09;;;;;;;19.50;8.20;;;;;;;;;;5074816;28;20440;-70
2022/01/17 01:51:35;;;;;;;13.83;8.07;;;;;;;;;;5059182;28;20409;-69
2022/01/17 01:54:01;;;;;;;12.47;8.20;;;;;;;;;;5077090;28;20414;-69
2022/01/17 01:56:27;;;;;;;14.57;9.23;;;;;;;;;;5077033;28;20412;-71
2022/01/17 01:58:53;;;;;;;14.80;8.40;;;;;;;;;;5076936;28;20460;-71
2022/01/17 02:01:19;;;;;;;13.70;8.77;;;;;;;;;;5076963;28;20404;-71
2022/01/17 02:03:45;;;;;;;12.27;8.13;;;;;;;;;;5076880;28;20416;-70
2022/01/17 02:06:11;;;;;;;11.80;8.30;;;;;;;;;;5076962;28;20440;-71
2022/01/17 02:08:37;;;;;;;13.60;8.83;;;;;;;;;;5076782;28;20463;-70
2022/01/17 02:11:03;;;;;;;13.07;7.90;;;;;;;;;;5076764;28;20406;-70
2022/01/17 02:13:29;;;;;;;11.67;8.03;;;;;;;;;;5076650;28;20888;-69
2022/01/17 02:16:15;;;;;;;13.77;8.30;;;;;;;;;;5076699;28;20756;-70
2022/01/17 02:18:44;;;;;;;13.80;9.00;;;;;;;;;;5076771;28;20738;-71
2022/01/17 02:23:40;;;;;;;12.27;8.27;;;;;;;;;;5076545;28;20555;-70
2022/01/17 02:26:07;;;;;;;13.27;8.30;;;;;;;;;;5076449;28;20397;-71
2022/01/17 02:28:33;;;;;;;12.73;8.53;;;;;;;;;;5058399;28;20576;-69
2022/01/17 02:31:00;;;;;;;12.27;7.40;;;;;;;;;;5076236;28;20404;-68
2022/01/17 02:33:26;;;;;;;11.80;7.97;;;;;;;;;;5076526;28;20410;-71
2022/01/17 02:35:52;;;;;;;12.53;7.67;;;;;;;;;;5076328;28;20488;-70
2022/01/17 02:38:18;;;;;;;14.37;7.87;;;;;;;;;;5076269;28;20445;-71
2022/01/17 02:40:44;;;;;;;9.90;7.53;;;;;;;;;;5076013;28;20762;-69
2022/01/17 02:43:10;;;;;;;11.40;7.40;;;;;;;;;;5076149;28;20393;-70
2022/01/17 02:48:18;;;;;;;13.77;8.43;;;;;;;;;;5076017;28;20497;-68
2022/01/17 02:50:44;;;;;;;15.13;8.10;;;;;;;;;;5058122;28;20427;-68
2022/01/17 02:53:12;;;;;;;13.97;8.47;;;;;;;;;;5076008;28;20490;-69
2022/01/17 02:55:39;;;;;;;13.03;8.27;;;;;;;;;;5075948;28;20491;-71
2022/01/17 02:58:05;;;;;;;12.70;8.10;;;;;;;;;;5075874;28;20414;-71
2022/01/17 03:00:31;;;;;;;12.20;8.20;;;;;;;;;;5075227;28;20549;-71
2022/01/17 03:02:57;;;;;;;13.30;8.10;;;;;;;;;;5075898;28;20936;-71
2022/01/17 03:05:23;;;;;;;13.93;8.10;;;;;;;;;;5075702;28;20418;-68
2022/01/17 03:07:50;;;;;;;12.03;7.40;;;;;;;;;;5075555;28;20477;-71
2022/01/17 03:13:01;;;;;;;11.13;7.30;;;;;;;;;;5075709;28;20402;-70
2022/01/17 03:15:27;;;;;;;11.03;7.67;;;;;;;;;;5075709;28;20786;-70
2022/01/17 03:17:55;;;;;;;12.50;8.07;;;;;;;;;;5075497;28;20489;-69
2022/01/17 03:20:21;;;;;;;14.00;7.83;;;;;;;;;;5075359;28;20410;-69
2022/01/17 03:22:47;;;;;;;14.60;8.83;;;;;;;;;;5075393;28;20413;-69
2022/01/17 03:25:13;;;;;;;11.00;8.10;;;;;;;;;;5075539;28;20398;-69
2022/01/17 03:27:39;;;;;;;12.53;7.90;;;;;;;;;;5075310;28;20473;-69
2022/01/17 03:30:05;;;;;;;10.80;7.20;;;;;;;;;;5075212;28;20410;-69
2022/01/17 03:32:31;;;;;;;11.67;8.03;;;;;;;;;;5075277;28;20412;-70
2022/01/17 03:34:57;;;;;;;11.83;7.70;;;;;;;;;;5075324;28;20491;-69
2022/01/17 03:37:24;;;;;;;10.93;7.10;;;;;;;;;;5075211;28;20509;-68
2022/01/17 03:39:50;;;;;;;11.83;7.67;;;;;;;;;;5057008;28;20401;-70
2022/01/17 03:42:18;;;;;;;15.80;7.87;;;;;;;;;;5075102;28;20418;-69
2022/01/17 03:44:44;;;;;;;11.47;7.50;;;;;;;;;;5075124;28;20969;-70
2022/01/17 03:47:12;;;;;;;12.27;8.47;;;;;;;;;;5075008;28;20548;-69
2022/01/17 03:49:38;;;;;;;10.90;7.80;;;;;;;;;;5074988;28;20485;-70
2022/01/17 03:52:04;;;;;;;11.90;7.50;;;;;;;;;;5074874;28;20918;-70
2022/01/17 03:54:31;;;;;;;11.83;7.70;;;;;;;;;;5074825;28;20395;-69
2022/01/17 03:56:57;;;;;;;12.40;7.83;;;;;;;;;;5074850;28;20454;-70
2022/01/17 03:59:23;;;;;;;11.23;6.70;;;;;;;;;;5074500;28;20456;-70
2022/01/17 04:01:50;;;;;;;12.40;7.47;;;;;;;;;;5074665;28;20882;-71
2022/01/17 04:04:16;;;;;;;12.50;8.07;;;;;;;;;;5074798;28;20402;-70
2022/01/17 04:06:42;;;;;;;10.63;7.60;;;;;;;;;;5074415;28;20409;-69
2022/01/17 04:09:08;;;;;;;12.83;7.80;;;;;;;;;;5074365;28;20797;-67
2022/01/17 04:11:34;;;;;;;11.93;8.07;;;;;;;;;;5073766;28;20869;-67
2022/01/17 04:14:01;;;;;;;10.57;7.23;;;;;;;;;;5074548;28;20480;-67
2022/01/17 04:16:27;;;;;;;13.13;8.23;;;;;;;;;;5074393;28;20395;-67
2022/01/17 04:18:54;;;;;;;12.27;7.80;;;;;;;;;;5074108;28;20900;-67
2022/01/17 04:21:20;;;;;;;13.43;8.67;;;;;;;;;;5074327;28;20396;-67
2022/01/17 04:23:46;;;;;;;11.33;7.80;;;;;;;;;;5074211;28;20904;-67
2022/01/17 04:26:14;;;;;;;13.70;7.53;;;;;;;;;;5074200;28;20895;-67
2022/01/17 04:28:40;;;;;;;11.23;7.50;;;;;;;;;;5074000;28;20464;-67
2022/01/17 04:31:06;;;;;;;14.00;8.87;;;;;;;;;;5074017;28;20415;-67
2022/01/17 04:33:32;;;;;;;11.10;8.00;;;;;;;;;;5074107;28;20414;-67
2022/01/17 04:35:58;;;;;;;9.37;7.10;;;;;;;;;;5073953;28;20411;-67
2022/01/17 04:38:24;;;;;;;13.33;8.70;;;;;;;;;;5073956;28;20422;-67
2022/01/17 04:41:00;;;;;;;12.40;8.27;;;;;;;;;;5073715;28;20411;-67
2022/01/17 04:43:54;;;;;;;11.73;7.90;;;;;;;;;;5073921;28;20405;-67
2022/01/17 04:46:18;;;;;;;11.67;7.33;;;;;;;;;;5073632;28;20420;-68
2022/01/17 04:48:44;;;;;;;11.33;8.13;;;;;;;;;;5073711;28;20879;-67
2022/01/17 04:51:10;;;;;;;10.73;7.60;;;;;;;;;;5073729;28;20400;-68
2022/01/17 04:53:36;;;;;;;10.77;7.53;;;;;;;;;;5073693;28;20418;-67
2022/01/17 04:56:03;;;;;;;11.00;7.07;;;;;;;;;;5073704;28;20899;-67
2022/01/17 04:58:29;;;;;;;9.90;6.87;;;;;;;;;;5073513;28;20420;-67
2022/01/17 05:00:55;;;;;;;10.70;7.07;;;;;;;;;;5073388;28;20424;-67
2022/01/17 05:03:25;;;;;;;11.73;8.33;;;;;;;;;;5073403;28;20423;-68
2022/01/17 05:05:51;;;;;;;10.93;7.27;;;;;;;;;;5073444;28;20401;-68
2022/01/17 05:08:18;;;;;;;12.80;8.03;;;;;;;;;;5073535;28;20471;-67
2022/01/17 05:10:50;;;;;;;12.23;7.03;;;;;;;;;;5073325;28;20489;-67
2022/01/17 05:13:20;;;;;;;11.43;7.10;;;;;;;;;;5073623;28;20415;-67
2022/01/17 05:15:52;;;;;;;11.80;7.43;;;;;;;;;;5073456;28;20401;-67
2022/01/17 05:20:50;;;;;;;12.20;7.70;;;;;;;;;;5073199;28;20397;-70
2022/01/17 05:23:16;;;;;;;14.30;8.10;;;;;;;;;;5055403;28;20948;-71
2022/01/17 05:25:42;;;;;;;12.47;8.30;;;;;;;;;;5073253;28;20405;-71
2022/01/17 05:28:08;;;;;;;12.73;7.50;;;;;;;;;;5073119;28;20602;-71
2022/01/17 05:30:34;;;;;;;11.10;7.73;;;;;;;;;;5055095;28;20506;-70
2022/01/17 05:33:00;;;;;;;13.67;7.93;;;;;;;;;;5073159;28;20413;-68
2022/01/17 05:35:27;;;;;;;12.67;8.20;;;;;;;;;;5073192;28;20444;-70
2022/01/17 05:37:53;;;;;;;11.77;8.17;;;;;;;;;;5073141;28;20501;-70
2022/01/17 05:40:20;;;;;;;11.73;7.93;;;;;;;;;;5072975;28;20445;-71
2022/01/17 05:42:46;;;;;;;14.70;7.93;;;;;;;;;;5073104;28;20405;-68
2022/01/17 05:45:13;;;;;;;11.03;7.03;;;;;;;;;;5055198;28;20406;-68
2022/01/17 05:47:39;;;;;;;11.73;7.30;;;;;;;;;;5072974;28;20481;-68
2022/01/17 05:50:06;;;;;;;10.90;7.67;;;;;;;;;;5072984;28;20410;-68
2022/01/17 05:52:33;;;;;;;12.03;7.50;;;;;;;;;;5054978;28;20416;-67
2022/01/17 05:54:59;;;;;;;10.30;6.90;;;;;;;;;;5072889;28;20402;-68
2022/01/17 05:57:25;;;;;;;9.73;6.67;;;;;;;;;;5072850;28;20482;-67
2022/01/17 05:59:51;;;;;;;10.67;7.70;;;;;;;;;;5074093;28;20465;-68
2022/01/17 06:02:17;;;;;;;9.80;6.90;;;;;;;;;;5093029;28;20402;-68
2022/01/17 06:04:43;;;;;;;10.70;7.30;;;;;;;;;;5093065;28;20408;-67
2022/01/17 06:07:09;;;;;;;7.70;6.10;;;;;;;;;;5092973;28;20547;-68
2022/01/17 06:09:36;;;;;;;7.73;5.90;;;;;;;;;;5092998;28;20511;-67
2022/01/17 06:12:02;;;;;;;8.87;5.67;;;;;;;;;;5092921;28;20404;-68
2022/01/17 06:14:29;;;;;;;7.10;5.20;;;;;;;;;;5092992;28;20436;-68
2022/01/17 06:16:55;;;;;;;10.73;6.00;;;;;;;;;;5092977;28;20895;-67
2022/01/17 06:19:22;;;;;;;9.67;6.20;;;;;;;;;;5091620;28;20439;-67
2022/01/17 06:21:48;;;;;;;11.00;7.30;;;;;;;;;;5091624;28;20766;-68
2022/01/17 06:24:14;;;;;;;9.27;6.27;;;;;;;;;;5092881;28;20884;-68
2022/01/17 06:26:41;;;;;;;8.50;5.20;;;;;;;;;;5092733;28;20858;-68
2022/01/17 06:29:08;;;;;;;7.77;5.20;;;;;;;;;;5091408;28;20423;-69
2022/01/17 06:31:35;;;;;;;8.30;5.10;;;;;;;;;;5092844;28;20875;-68
2022/01/17 06:34:00;;;;;;;6.80;4.63;;;;;;;;;;5092686;28;20776;-68
2022/01/17 06:36:27;;;;;;;7.30;5.27;;;;;;;;;;5096386;28;20392;-68
2022/01/17 06:38:52;;;;;;;10.33;6.20;;;;;;;;;;5095214;28;20412;-69
2022/01/17 06:41:19;;;;;;;8.10;5.20;;;;;;;;;;5096398;28;20406;-67
2022/01/17 06:43:46;;;;;;;10.43;6.37;;;;;;;;;;5096352;28;20797;-68
2022/01/17 06:46:12;;;;;;;7.63;5.07;;;;;;;;;;5096309;28;20467;-68
2022/01/17 06:48:38;;;;;;;8.00;5.37;;;;;;;;;;5096336;28;20464;-68
2022/01/17 06:51:05;;;;;;;6.73;5.40;;;;;;;;;;5096108;28;20409;-68
2022/01/17 06:53:31;;;;;;;10.47;5.43;;;;;;;;;;5096210;28;20407;-67
2022/01/17 06:55:59;;;;;;;8.33;6.00;;;;;;;;;;5096178;28;20399;-68
2022/01/17 06:58:25;;;;;;;8.13;6.00;;;;;;;;;;5096147;28;20397;-68
2022/01/17 07:00:51;;;;;;;8.60;5.87;;;;;;;;;;5076037;28;20498;-68
2022/01/17 07:03:17;;;;;;;8.83;6.07;;;;;;;;;;5075672;28;20399;-70
2022/01/17 07:05:43;;;;;;;8.97;5.90;;;;;;;;;;5075563;28;20442;-68
2022/01/17 07:08:09;;;;;;;5.93;5.00;;;;;;;;;;5057451;28;20950;-67
2022/01/17 07:10:35;;;;;;;8.00;5.20;;;;;;;;;;5075459;28;20409;-67
2022/01/17 07:13:01;;;;;;;6.03;5.17;;;;;;;;;;5075503;28;20410;-68
2022/01/17 07:15:27;;;;;;;7.57;5.37;;;;;;;;;;5057566;28;20405;-68
2022/01/17 07:17:53;;;;;;;13.13;6.00;;;;;;;;;;5057474;28;20412;-68
2022/01/17 07:20:19;;;;;;;5.90;4.80;;;;;;;;;;5075298;28;20406;-68
2022/01/17 07:22:45;;;;;;;7.17;5.20;;;;;;;;;;5075325;28;20408;-69
2022/01/17 07:25:12;;;;;;;8.13;5.63;;;;;;;;;;5075398;28;20409;-68
2022/01/17 07:27:40;;;;;;;6.50;5.30;;;;;;;;;;5075193;28;20530;-68
2022/01/17 07:30:07;;;;;;;7.43;5.30;;;;;;;;;;5075339;28;20416;-68
2022/01/17 07:32:33;;;;;;;8.43;5.37;;;;;;;;;;5057338;28;20778;-68
2022/01/17 07:34:59;;;;;;;9.20;5.23;;;;;;;;;;5057159;28;20981;-68
2022/01/17 07:37:25;;;;;;;7.20;5.67;;;;;;;;;;5075207;28;20413;-70
2022/01/17 07:39:51;;;;;;;8.43;6.10;;;;;;;;;;5074965;28;20401;-70
2022/01/17 07:42:17;;;;;;;7.17;5.37;;;;;;;;;;5074995;28;20401;-69
2022/01/17 07:44:52;;;;;;;7.03;5.00;;;;;;;;;;5074984;28;20405;-69
2022/01/17 07:47:24;;;;;;;8.03;5.00;;;;;;;;;;5073838;28;20470;-69
2022/01/17 07:49:50;;;;;;;5.70;4.60;;;;;;;;;;5074946;28;20414;-68
2022/01/17 07:52:16;;;;;;;5.20;4.70;;;;;;;;;;5074778;28;20407;-69
2022/01/17 07:54:47;;;;;;;6.10;4.37;;;;;;;;;;5074708;28;20404;-66
2022/01/17 07:57:13;;;;;;;5.70;4.30;;;;;;;;;;5056845;28;20414;-67
2022/01/17 07:59:40;;;;;;;5.77;4.83;;;;;;;;;;5074380;28;20455;-67
2022/01/17 08:02:06;;;;;;;5.17;4.00;;;;;;;;;;5074654;28;20427;-67
2022/01/17 08:04:32;;;;;;;7.17;4.47;;;;;;;;;;5074675;28;20404;-69
2022/01/17 08:06:58;;;;;;;5.77;4.80;;;;;;;;;;5074472;28;20846;-71
2022/01/17 08:09:25;;;;;;;7.33;4.80;;;;;;;;;;5074444;28;20414;-71
2022/01/17 08:11:53;;;;;;;4.33;3.80;;;;;;;;;;5074416;28;20805;-73
2022/01/17 08:14:19;;;;;;;5.87;4.20;;;;;;;;;;5074294;28;20416;-72
2022/01/17 08:16:45;;;;;;;6.17;4.67;;;;;;;;;;5074172;28;20460;-72
2022/01/17 08:19:13;;;;;;;7.60;5.40;;;;;;;;;;5056141;28;20759;-72
2022/01/17 08:21:39;;;;;;;7.00;5.03;;;;;;;;;;5074288;28;20884;-71
2022/01/17 08:24:05;;;;;;;7.17;5.17;;;;;;;;;;5056306;28;20416;-69
2022/01/17 08:26:31;;;;;;;15.13;6.13;;;;;;;;;;5074077;28;20407;-67
2022/01/17 08:28:57;;;;;;;6.17;5.00;;;;;;;;;;5073949;28;20470;-73
2022/01/17 08:31:23;;;;;;;9.57;4.77;;;;;;;;;;5074028;28;20409;-71
2022/01/17 08:33:49;;;;;;;8.33;4.40;;;;;;;;;;5074047;28;20429;-71
2022/01/17 08:36:19;;;;;;;6.73;4.73;;;;;;;;;;5074010;28;20489;-72
2022/01/17 08:38:45;;;;;;;7.40;4.93;;;;;;;;;;5073866;28;20507;-73
2022/01/17 08:41:11;;;;;;;7.13;4.83;;;;;;;;;;5073928;28;20399;-73
2022/01/17 08:43:37;;;;;;;8.37;5.00;;;;;;;;;;5073767;28;20411;-71
2022/01/17 08:46:03;;;;;;;6.73;4.50;;;;;;;;;;5073775;28;20777;-70
2022/01/17 08:48:29;;;;;;;7.37;4.67;;;;;;;;;;5073606;28;20576;-69
2022/01/17 08:50:55;;;;;;;5.63;4.13;;;;;;;;;;5073812;28;20412;-69
2022/01/17 08:53:21;;;;;;;6.47;4.90;;;;;;;;;;5073590;28;20412;-68
2022/01/17 08:55:47;;;;;;;7.30;4.50;;;;;;;;;;5073567;28;20412;-70
2022/01/17 08:58:14;;;;;;;8.00;5.20;;;;;;;;;;5055521;28;20471;-67
2022/01/17 09:00:41;;;;;;;6.80;4.63;;;;;;;;;;5073260;28;20824;-68
2022/01/17 09:03:07;;;;;;;6.30;4.60;;;;;;;;;;5073495;28;20810;-67
2022/01/17 09:05:34;;;;;;;5.13;4.30;;;;;;;;;;5073446;28;20405;-67
2022/01/17 09:08:01;;;;;;;6.47;4.30;;;;;;;;;;5073418;28;20474;-68
2022/01/17 09:10:28;;;;;;;5.60;4.20;;;;;;;;;;5073475;28;20420;-68
2022/01/17 09:12:56;;;;;;;5.30;4.27;;;;;;;;;;5073483;28;20897;-68
2022/01/17 09:15:22;;;;;;;7.33;4.33;;;;;;;;;;5055524;28;20418;-68
2022/01/17 09:17:48;;;;;;;5.07;4.50;;;;;;;;;;5073299;28;20416;-68
2022/01/17 09:20:15;;;;;;;8.53;4.80;;;;;;;;;;5073191;28;20466;-68
2022/01/17 09:22:41;;;;;;;5.13;4.20;;;;;;;;;;5073202;28;20486;-68
2022/01/17 09:25:07;;;;;;;6.30;4.60;;;;;;;;;;5073246;28;20896;-68
2022/01/17 09:27:36;;;;;;;9.00;4.10;;;;;;;;;;5073123;28;20521;-68
2022/01/17 09:30:07;;;;;;;7.00;4.40;;;;;;;;;;5073179;28;20501;-68
2022/01/17 09:32:33;;;;;;;4.60;3.37;;;;;;;;;;5073050;28;20450;-68
2022/01/17 09:35:00;;;;;;;4.33;3.87;;;;;;;;;;5073197;28;20759;-69
2022/01/17 09:37:26;;;;;;;6.83;4.43;;;;;;;;;;5073105;28;20405;-67
2022/01/17 09:39:52;;;;;;;3.40;3.10;;;;;;;;;;5072930;28;20478;-67
2022/01/17 09:42:18;;;;;;;3.43;3.13;;;;;;;;;;5073017;28;20416;-67
2022/01/17 09:44:44;;;;;;;3.30;3.00;;;;;;;;;;5073111;28;20409;-68
2022/01/17 09:47:12;;;;;;;5.13;2.80;;;;;;;;;;5072794;28;20941;-68
2022/01/17 09:55:07;;;;;;;4.40;2.97;;;;;;;;;;5055101;28;20418;-69
2022/01/17 09:57:38;;;;;;;2.50;2.30;;;;;;;;;;5072888;28;20408;-69
2022/01/17 10:00:05;;;;;;;4.10;2.67;;;;;;;;;;5072640;28;20488;-68
2022/01/17 10:02:31;;;;;;;4.63;2.60;;;;;;;;;;5072879;28;20480;-74
2022/01/17 10:04:57;;;;;;;5.97;2.40;;;;;;;;;;5054896;28;20419;-72
2022/01/17 10:07:25;;;;;;;2.97;2.47;;;;;;;;;;5072695;28;20538;-68
2022/01/17 10:09:56;;;;;;;2.60;2.40;;;;;;;;;;5073916;28;20397;-68
2022/01/17 10:12:22;;;;;;;8.40;3.50;;;;;;;;;;5076769;28;20432;-71
2022/01/17 10:15:01;;;;;;;2.37;2.17;;;;;;;;;;5076702;28;20496;-70
2022/01/17 10:17:42;;;;;;;3.30;2.43;;;;;;;;;;5076689;28;20402;-71
2022/01/17 10:20:09;;;;;;;2.43;2.20;;;;;;;;;;5076559;28;20413;-73
2022/01/17 10:22:46;;;;;;;2.47;2.27;;;;;;;;;;5076548;28;20458;-71
2022/01/17 10:25:23;;;;;;;3.70;2.80;;;;;;;;;;5076472;28;20761;-73
2022/01/17 10:28:16;;;;;;;2.90;2.60;;;;;;;;;;5076415;28;20510;-71
2022/01/17 10:35:41;;;;;;;2.20;2.00;;;;;;;;;;5076373;28;20457;-72
2022/01/17 10:38:11;;;;;;;3.13;1.97;;;;;;;;;;5076166;28;20439;-71
2022/01/17 10:40:38;;;;;;;3.60;3.00;;;;;;;;;;5076203;28;20470;-72
2022/01/17 10:43:06;;;;;;;4.37;3.00;;;;;;;;;;5076140;28;20419;-72
2022/01/17 10:45:37;;;;;;;2.80;2.37;;;;;;;;;;5076190;28;20809;-72
2022/01/17 10:48:03;;;;;;;5.60;3.07;;;;;;;;;;5058220;28;20617;-71
2022/01/17 10:50:31;;;;;;;2.20;1.90;;;;;;;;;;5076101;28;20401;-70
2022/01/17 10:53:01;;;;;;;2.10;1.90;;;;;;;;;;5076019;28;20408;-72
2022/01/17 10:55:32;;;;;;;5.83;2.37;;;;;;;;;;5076020;28;20538;-70
2022/01/17 10:58:03;;;;;;;6.73;2.20;;;;;;;;;;5075855;28;20906;-69
2022/01/17 11:00:30;;;;;;;7.30;2.53;;;;;;;;;;5087316;28;20466;-69
2022/01/17 11:02:57;;;;;;;2.43;2.23;;;;;;;;;;5096176;28;20758;-71
2022/01/17 11:05:24;;;;;;;2.13;1.53;;;;;;;;;;5095961;28;20876;-68
2022/01/17 11:07:52;;;;;;;4.40;3.80;;;;;;;;;;5095982;28;20506;-69
2022/01/17 11:10:39;;;;;;;5.70;3.53;;;;;;;;;;5095971;28;20408;-68
2022/01/17 11:13:06;;;;;;;3.77;3.37;;;;;;;;;;5094762;28;20496;-68
2022/01/17 11:15:34;;;;;;;6.73;3.30;;;;;;;;;;5095897;28;20961;-71
2022/01/17 11:18:24;;;;;;;2.97;2.40;;;;;;;;;;5095752;28;20878;-70
2022/01/17 11:20:52;;;;;;;5.40;1.90;;;;;;;;;;5095472;28;20900;-68
2022/01/17 11:23:21;;;;;;;1.93;1.63;;;;;;;;;;5095680;28;20405;-67
2022/01/17 11:25:52;;;;;;;2.63;2.03;;;;;;;;;;5095699;28;20401;-69
2022/01/17 11:28:18;;;;;;;2.23;2.03;;;;;;;;;;5095358;28;20488;-69
2022/01/17 11:30:45;;;;;;;3.07;2.10;;;;;;;;;;5095484;28;20433;-71
2022/01/17 11:33:11;;;;;;;4.50;3.67;;;;;;;;;;5094217;28;20431;-68
2022/01/17 11:35:41;;;;;;;5.53;4.20;;;;;;;;;;5095146;28;20405;-70
2022/01/17 11:38:10;;;;;;;5.93;4.73;;;;;;;;;;5095254;28;20506;-73
2022/01/17 11:40:37;;;;;;;7.73;5.27;;;;;;;;;;5095298;28;20392;-71
2022/01/17 11:43:23;;;;;;;6.80;5.00;;;;;;;;;;5095128;28;20411;-71
2022/01/17 11:45:51;;;;;;;6.60;5.47;;;;;;;;;;5094020;28;20413;-71
2022/01/17 11:48:18;;;;;;;7.03;5.37;;;;;;;;;;5094933;28;20540;-70
2022/01/17 11:50:46;;;;;;;5.70;5.10;;;;;;;;;;5095086;28;20445;-68
2022/01/17 11:53:12;;;;;;;10.40;6.33;;;;;;;;;;5095039;28;20446;-69
2022/01/17 11:55:44;;;;;;;6.83;4.77;;;;;;;;;;5094990;28;20402;-68
2022/01/17 11:58:29;;;;;;;8.50;5.17;;;;;;;;;;5094951;28;20409;-68
2022/01/17 12:01:01;;;;;;;7.73;5.30;;;;;;;;;;5056695;28;20472;-68
2022/01/17 12:03:42;;;;;;;4.83;3.63;;;;;;;;;;5056604;28;20416;-70
2022/01/17 12:06:27;;;;;;;3.70;3.27;;;;;;;;;;5056711;28;20420;-70
2022/01/17 12:09:12;;;;;;;3.90;3.50;;;;;;;;;;5074424;28;20465;-69
2022/01/17 12:11:38;;;;;;;3.60;3.23;;;;;;;;;;5074556;28;20929;-69
2022/01/17 12:14:21;;;;;;;7.30;3.80;;;;;;;;;;5056506;28;20970;-70
2022/01/17 12:16:48;;;;;;;3.93;3.30;;;;;;;;;;5074336;28;20436;-69
2022/01/17 12:19:14;;;;;;;4.17;3.63;;;;;;;;;;5074403;28;20406;-70
2022/01/17 12:21:57;;;;;;;3.10;2.73;;;;;;;;;;5074220;28;20399;-72
2022/01/17 12:24:36;;;;;;;3.70;3.27;;;;;;;;;;5074321;28;20407;-69
2022/01/17 12:27:12;;;;;;;12.07;3.27;;;;;;;;;;5074163;28;20400;-69
2022/01/17 12:29:55;;;;;;;3.83;3.30;;;;;;;;;;5074022;28;20415;-69
2022/01/17 12:32:24;;;;;;;6.93;3.40;;;;;;;;;;5073536;28;20504;-70
2022/01/17 12:35:11;;;;;;;4.63;3.00;;;;;;;;;;5074009;28;20402;-69
2022/01/17 12:37:40;;;;;;;4.77;2.90;;;;;;;;;;5073953;28;20410;-70
2022/01/17 12:40:12;;;;;;;4.57;3.40;;;;;;;;;;5073840;28;20402;-72
2022/01/17 12:42:51;;;;;;;3.80;3.50;;;;;;;;;;5073844;28;20921;-72
2022/01/17 12:45:22;;;;;;;4.13;3.50;;;;;;;;;;5073797;28;20407;-74
2022/01/17 12:47:49;;;;;;;5.50;3.60;;;;;;;;;;5073630;28;20560;-71
2022/01/17 12:50:15;;;;;;;5.00;4.03;;;;;;;;;;5073679;28;20913;-71
2022/01/17 12:52:41;;;;;;;4.27;3.67;;;;;;;;;;5073690;28;20403;-72
2022/01/17 12:55:07;;;;;;;4.57;3.10;;;;;;;;;;5055834;28;20509;-73
2022/01/17 12:57:39;;;;;;;4.83;3.63;;;;;;;;;;5073640;28;20417;-72
2022/01/17 13:00:06;;;;;;;7.17;3.60;;;;;;;;;;5078349;28;20535;-69
2022/01/17 13:02:32;;;;;;;3.80;3.00;;;;;;;;;;5093698;28;20939;-69
2022/01/17 13:04:58;;;;;;;4.03;3.63;;;;;;;;;;5093742;28;20421;-69
2022/01/17 13:07:27;;;;;;;6.50;3.03;;;;;;;;;;5093696;28;20457;-69
2022/01/17 13:09:53;;;;;;;3.60;3.07;;;;;;;;;;5093654;28;20430;-69
2022/01/17 13:12:19;;;;;;;4.03;2.80;;;;;;;;;;5093544;28;20888;-69
2022/01/17 13:14:45;;;;;;;5.90;3.27;;;;;;;;;;5093536;28;20398;-69
2022/01/17 13:17:11;;;;;;;3.70;3.33;;;;;;;;;;5093567;28;20421;-69
2022/01/17 13:19:37;;;;;;;3.93;3.00;;;;;;;;;;5092099;28;20404;-69
2022/01/17 13:22:03;;;;;;;4.43;3.20;;;;;;;;;;5093501;28;20413;-69
2022/01/17 13:24:35;;;;;;;7.27;2.57;;;;;;;;;;5093507;28;20447;-68
2022/01/17 13:27:09;;;;;;;4.23;3.27;;;;;;;;;;5093485;28;20396;-68
2022/01/17 13:29:43;;;;;;;7.33;2.93;;;;;;;;;;5092148;28;20425;-68
2022/01/17 13:32:11;;;;;;;5.43;3.27;;;;;;;;;;5093591;28;20899;-69
2022/01/17 13:34:38;;;;;;;4.10;2.70;;;;;;;;;;5092223;28;20485;-68
2022/01/17 13:37:05;;;;;;;3.10;2.80;;;;;;;;;;5093272;28;20422;-69
2022/01/17 13:39:31;;;;;;;4.50;2.87;;;;;;;;;;5093141;28;20400;-68
2022/01/17 13:42:02;;;;;;;3.30;2.50;;;;;;;;;;5091969;28;20512;-71
2022/01/17 13:44:30;;;;;;;4.50;3.00;;;;;;;;;;5092372;28;20444;-69
2022/01/17 13:46:57;;;;;;;4.03;2.40;;;;;;;;;;5093200;28;20407;-69
2022/01/17 13:49:24;;;;;;;2.60;2.30;;;;;;;;;;5093273;28;20415;-69
2022/01/17 13:51:50;;;;;;;2.63;2.43;;;;;;;;;;5093142;28;20758;-69
2022/01/17 13:54:42;;;;;;;4.10;2.50;;;;;;;;;;5091787;28;20423;-69
2022/01/17 13:57:19;;;;;;;3.40;2.03;;;;;;;;;;5089620;28;20421;-69
2022/01/17 13:59:58;;;;;;;2.50;2.30;;;;;;;;;;5091352;28;20475;-69
2022/01/17 14:02:27;;;;;;;11.17;3.93;;;;;;;;;;5093004;28;20460;-68
2022/01/17 14:04:55;;;;;;;2.60;2.40;;;;;;;;;;5091826;28;20836;-67
2022/01/17 14:07:25;;;;;;;3.37;2.37;;;;;;;;;;5092933;28;20456;-68
2022/01/17 14:09:51;;;;;;;4.03;2.40;;;;;;;;;;5093030;28;20473;-69
2022/01/17 14:12:17;;;;;;;3.17;2.63;;;;;;;;;;5092962;28;20407;-68
2022/01/17 14:14:54;;;;;;;2.70;2.10;;;;;;;;;;5092886;28;20396;-69
2022/01/17 14:17:25;;;;;;;23.60;4.30;;;;;;;;;;5093028;28;20439;-70
2022/01/17 14:19:52;;;;;;;3.60;2.13;;;;;;;;;;5092824;28;20458;-69
2022/01/17 14:22:19;;;;;;;3.93;2.97;;;;;;;;;;5091648;28;20926;-69
2022/01/17 14:24:46;;;;;;;3.60;2.37;;;;;;;;;;5092845;28;20409;-69
2022/01/17 14:27:14;;;;;;;8.10;2.83;;;;;;;;;;5091555;28;20466;-73
2022/01/17 14:29:42;;;;;;;4.10;2.63;;;;;;;;;;5092808;28;20425;-68
2022/01/17 14:32:10;;;;;;;4.30;2.80;;;;;;;;;;5091565;28;20447;-71
2022/01/17 14:34:37;;;;;;;12.70;3.60;;;;;;;;;;5091591;28;20481;-70
2022/01/17 14:37:06;;;;;;;15.03;4.17;;;;;;;;;;5092640;28;20422;-67
2022/01/17 14:39:58;;;;;;;8.13;3.10;;;;;;;;;;5091275;28;20991;-70
2022/01/17 14:42:32;;;;;;;3.83;2.73;;;;;;;;;;5089225;28;20762;-68
2022/01/17 14:45:00;;;;;;;3.60;2.30;;;;;;;;;;5091545;28;20404;-70
2022/01/17 14:47:27;;;;;;;3.40;2.70;;;;;;;;;;5092714;28;20469;-70
2022/01/17 14:49:54;;;;;;;7.47;3.20;;;;;;;;;;5092380;28;20413;-71
2022/01/17 14:52:21;;;;;;;4.60;3.13;;;;;;;;;;5091184;28;20408;-68
2022/01/17 15:03:01;;;;;;;3.30;2.93;;;;;;;;;;5075906;28;20752;-69
2022/01/17 15:05:27;;;;;;;3.70;2.90;;;;;;;;;;5075808;28;20404;-70
2022/01/17 15:07:53;;;;;;;4.40;2.60;;;;;;;;;;5057631;28;20980;-69
2022/01/17 15:10:21;;;;;;;4.50;3.17;;;;;;;;;;5057761;28;20410;-70
2022/01/17 15:12:47;;;;;;;4.20;2.90;;;;;;;;;;5075703;28;20492;-71
2022/01/17 15:15:14;;;;;;;3.33;2.70;;;;;;;;;;5075731;28;20419;-68
2022/01/17 15:17:42;;;;;;;5.87;3.13;;;;;;;;;;5075509;28;20440;-71
2022/01/17 15:20:08;;;;;;;7.03;3.27;;;;;;;;;;5075481;28;20408;-69
2022/01/17 15:22:35;;;;;;;3.47;2.97;;;;;;;;;;5057491;28;20414;-69
2022/01/17 15:25:00;;;;;;;3.57;2.97;;;;;;;;;;5075504;28;20413;-68
2022/01/17 15:27:27;;;;;;;3.10;2.83;;;;;;;;;;5075358;28;20460;-69